createdAt,value
2023-04-30T00:00:20.418Z,1186.00
2023-04-30T00:01:20.407Z,1193.00
2023-04-30T00:02:20.533Z,1183.00
2023-04-30T00:03:20.441Z,1185.00
2023-04-30T00:04:20.496Z,1190.00
2023-04-30T00:05:20.477Z,1191.00
2023-04-30T00:06:20.470Z,1192.00
2023-04-30T00:07:20.449Z,1191.00
2023-04-30T00:08:20.456Z,1200.00
2023-04-30T00:09:20.454Z,1190.00
2023-04-30T00:10:20.464Z,1214.00
2023-04-30T00:11:20.462Z,1196.00
2023-04-30T00:12:20.490Z,1197.00
2023-04-30T00:13:20.485Z,1210.00
2023-04-30T00:14:20.496Z,1210.00
2023-04-30T00:15:20.516Z,1207.00
2023-04-30T00:16:20.532Z,1207.00
2023-04-30T00:17:20.524Z,1213.00
2023-04-30T00:18:20.518Z,1204.00
2023-04-30T00:19:20.521Z,1221.00
2023-04-30T00:20:20.521Z,1210.00
2023-04-30T00:21:20.525Z,1208.00
2023-04-30T00:22:20.521Z,1226.00
2023-04-30T00:23:20.509Z,1235.00
2023-04-30T00:24:20.536Z,1222.00
2023-04-30T00:25:20.533Z,1216.00
2023-04-30T00:26:20.560Z,1212.00
2023-04-30T00:27:20.551Z,1196.00
2023-04-30T00:28:20.561Z,1215.00
2023-04-30T00:29:20.543Z,1218.00
2023-04-30T00:30:20.572Z,1210.00
2023-04-30T00:31:20.724Z,1218.00
2023-04-30T00:32:20.621Z,1244.00
2023-04-30T00:33:20.608Z,1235.00
2023-04-30T00:34:20.641Z,1226.00
2023-04-30T00:35:20.679Z,1216.00
2023-04-30T00:36:20.696Z,1218.00
2023-04-30T00:37:20.756Z,1228.00
2023-04-30T00:38:20.750Z,1235.00
2023-04-30T00:39:20.795Z,1216.00
2023-04-30T00:40:20.825Z,1219.00
2023-04-30T00:41:20.839Z,1205.00
2023-04-30T00:42:20.839Z,1206.00
2023-04-30T00:43:20.853Z,1208.00
2023-04-30T00:44:20.831Z,1216.00
2023-04-30T00:45:20.836Z,1220.00
2023-04-30T00:46:20.888Z,1216.00
2023-04-30T00:47:20.878Z,1235.00
2023-04-30T00:48:20.905Z,1230.00
2023-04-30T00:49:20.850Z,1227.00
2023-04-30T00:50:20.853Z,1244.00
2023-04-30T00:51:20.843Z,1245.00
2023-04-30T00:52:20.831Z,1236.00
2023-04-30T00:53:20.844Z,1237.00
2023-04-30T00:54:20.855Z,1244.00
2023-04-30T00:55:20.833Z,1248.00
2023-04-30T00:56:20.845Z,1252.00
2023-04-30T00:57:20.853Z,1267.00
2023-04-30T00:58:20.818Z,1247.00
2023-04-30T00:59:20.821Z,1253.00
2023-04-30T01:00:20.815Z,1249.00
2023-04-30T01:01:20.840Z,1266.00
2023-04-30T01:02:21.017Z,1272.00
2023-04-30T01:03:20.872Z,1269.00
2023-04-30T01:04:20.800Z,1270.00
2023-04-30T01:05:20.805Z,1268.00
2023-04-30T01:06:20.855Z,1255.00
2023-04-30T01:07:20.806Z,1274.00
2023-04-30T01:08:20.799Z,1271.00
2023-04-30T01:09:20.798Z,1274.00
2023-04-30T01:10:20.799Z,1259.00
2023-04-30T01:11:20.799Z,1237.00
2023-04-30T01:12:20.790Z,1258.00
2023-04-30T01:13:20.782Z,1254.00
2023-04-30T01:14:20.780Z,1253.00
2023-04-30T01:15:20.779Z,1244.00
2023-04-30T01:16:20.862Z,1245.00
2023-04-30T01:17:20.774Z,1248.00
2023-04-30T01:18:20.842Z,1252.00
2023-04-30T01:19:20.786Z,1251.00
2023-04-30T01:20:20.758Z,1248.00
2023-04-30T01:21:20.756Z,1247.00
2023-04-30T01:22:20.755Z,1239.00
2023-04-30T01:23:20.747Z,1232.00
2023-04-30T01:24:20.734Z,1236.00
2023-04-30T01:25:20.758Z,1236.00
2023-04-30T01:26:20.761Z,1228.00
2023-04-30T01:27:20.733Z,1225.00
2023-04-30T01:28:20.728Z,1232.00
2023-04-30T01:29:20.772Z,1221.00
2023-04-30T01:30:20.783Z,1227.00
2023-04-30T01:31:20.757Z,1215.00
2023-04-30T01:32:20.763Z,1228.00
2023-04-30T01:33:20.877Z,1240.00
2023-04-30T01:34:20.748Z,1236.00
2023-04-30T01:35:20.741Z,1228.00
2023-04-30T01:36:20.750Z,1237.00
2023-04-30T01:37:20.748Z,1232.00
2023-04-30T01:38:20.833Z,1239.00
2023-04-30T01:39:20.746Z,1245.00
2023-04-30T01:40:20.784Z,1235.00
2023-04-30T01:41:20.790Z,1233.00
2023-04-30T01:42:20.828Z,1233.00
2023-04-30T01:43:20.839Z,1241.00
2023-04-30T01:44:20.863Z,1236.00
2023-04-30T01:45:20.898Z,1249.00
2023-04-30T01:46:20.987Z,1239.00
2023-04-30T01:47:20.994Z,1242.00
2023-04-30T01:48:20.957Z,1244.00
2023-04-30T01:49:21.013Z,1253.00
2023-04-30T01:50:21.004Z,1246.00
2023-04-30T01:51:21.039Z,1241.00
2023-04-30T01:52:21.051Z,1253.00
2023-04-30T01:53:21.081Z,1251.00
2023-04-30T01:54:21.105Z,1244.00
2023-04-30T01:55:21.164Z,1251.00
2023-04-30T01:56:21.167Z,1256.00
2023-04-30T01:57:21.199Z,1253.00
2023-04-30T01:58:21.242Z,1253.00
2023-04-30T01:59:21.261Z,1251.00
2023-04-30T02:00:21.312Z,1258.00
2023-04-30T02:01:21.335Z,1251.00
2023-04-30T02:02:21.386Z,1252.00
2023-04-30T02:03:21.387Z,1255.00
2023-04-30T02:04:21.297Z,1260.00
2023-04-30T02:05:21.302Z,1257.00
2023-04-30T02:06:21.337Z,1280.00
2023-04-30T02:07:21.292Z,1276.00
2023-04-30T02:08:21.293Z,1309.00
2023-04-30T02:09:21.284Z,1301.00
2023-04-30T02:10:21.284Z,1302.00
2023-04-30T02:11:21.285Z,1301.00
2023-04-30T02:12:21.287Z,1308.00
2023-04-30T02:13:21.270Z,1308.00
2023-04-30T02:14:21.275Z,1319.00
2023-04-30T02:15:21.281Z,1300.00
2023-04-30T02:16:21.318Z,1308.00
2023-04-30T02:17:21.258Z,1319.00
2023-04-30T02:18:21.346Z,1337.00
2023-04-30T02:19:21.265Z,1321.00
2023-04-30T02:20:21.309Z,1316.00
2023-04-30T02:21:21.312Z,1302.00
2023-04-30T02:22:21.251Z,1331.00
2023-04-30T02:23:21.248Z,1321.00
2023-04-30T02:24:21.259Z,1328.00
2023-04-30T02:25:21.274Z,1322.00
2023-04-30T02:26:21.272Z,1312.00
2023-04-30T02:27:21.246Z,1320.00
2023-04-30T02:28:21.268Z,1318.00
2023-04-30T02:29:21.260Z,1337.00
2023-04-30T02:30:21.263Z,1331.00
2023-04-30T02:31:21.309Z,1329.00
2023-04-30T02:32:21.409Z,1340.00
2023-04-30T02:33:21.318Z,1318.00
2023-04-30T02:34:21.358Z,1331.00
2023-04-30T02:35:21.385Z,1334.00
2023-04-30T02:36:21.430Z,1338.00
2023-04-30T02:37:21.444Z,1341.00
2023-04-30T02:38:21.489Z,1334.00
2023-04-30T02:39:21.506Z,1347.00
2023-04-30T02:40:21.540Z,1323.00
2023-04-30T02:41:21.555Z,1309.00
2023-04-30T02:42:21.590Z,1323.00
2023-04-30T02:43:21.614Z,1323.00
2023-04-30T02:44:21.641Z,1340.00
2023-04-30T02:45:21.678Z,1333.00
2023-04-30T02:46:21.796Z,1311.00
2023-04-30T02:47:21.777Z,1329.00
2023-04-30T02:48:21.760Z,1321.00
2023-04-30T02:49:21.782Z,1327.00
2023-04-30T02:50:21.819Z,1312.00
2023-04-30T02:51:21.843Z,1322.00
2023-04-30T02:52:21.874Z,1344.00
2023-04-30T02:53:21.891Z,1317.00
2023-04-30T02:54:21.928Z,1326.00
2023-04-30T02:55:21.936Z,1328.00
2023-04-30T02:56:21.970Z,1315.00
2023-04-30T02:57:22.007Z,1319.00
2023-04-30T02:58:22.030Z,1335.00
2023-04-30T02:59:22.068Z,1329.00
2023-04-30T03:00:22.073Z,1334.00
2023-04-30T03:01:22.166Z,1324.00
2023-04-30T03:02:22.193Z,1336.00
2023-04-30T03:03:22.337Z,1339.00
2023-04-30T03:04:22.289Z,1346.00
2023-04-30T03:05:22.319Z,1343.00
2023-04-30T03:06:22.397Z,1337.00
2023-04-30T03:07:22.356Z,1328.00
2023-04-30T03:08:22.393Z,1318.00
2023-04-30T03:09:22.413Z,1327.00
2023-04-30T03:10:22.466Z,1338.00
2023-04-30T03:11:22.471Z,1333.00
2023-04-30T03:12:22.491Z,1313.00
2023-04-30T03:13:22.571Z,1326.00
2023-04-30T03:14:22.541Z,1327.00
2023-04-30T03:15:22.547Z,1328.00
2023-04-30T03:16:22.627Z,1330.00
2023-04-30T03:17:22.608Z,1329.00
2023-04-30T03:18:22.561Z,1338.00
2023-04-30T03:19:22.569Z,1327.00
2023-04-30T03:20:22.575Z,1329.00
2023-04-30T03:21:22.551Z,1330.00
2023-04-30T03:22:22.554Z,1338.00
2023-04-30T03:23:22.575Z,1331.00
2023-04-30T03:24:22.557Z,1314.00
2023-04-30T03:25:22.551Z,1321.00
2023-04-30T03:26:22.564Z,1317.00
2023-04-30T03:27:22.546Z,1316.00
2023-04-30T03:28:22.552Z,1313.00
2023-04-30T03:29:22.570Z,1316.00
2023-04-30T03:30:22.557Z,1293.00
2023-04-30T03:31:22.685Z,1310.00
2023-04-30T03:32:22.571Z,1306.00
2023-04-30T03:33:22.612Z,1281.00
2023-04-30T03:34:22.543Z,1275.00
2023-04-30T03:35:22.548Z,1286.00
2023-04-30T03:36:22.569Z,1289.00
2023-04-30T03:37:22.558Z,1297.00
2023-04-30T03:38:22.569Z,1288.00
2023-04-30T03:39:22.561Z,1275.00
2023-04-30T03:40:22.596Z,1292.00
2023-04-30T03:41:22.900Z,1273.00
2023-04-30T03:42:22.710Z,1270.00
2023-04-30T03:43:22.748Z,1262.00
2023-04-30T03:44:22.805Z,1273.00
2023-04-30T03:45:22.863Z,1274.00
2023-04-30T03:46:22.924Z,1273.00
2023-04-30T03:47:22.914Z,1268.00
2023-04-30T03:48:22.938Z,1252.00
2023-04-30T03:49:22.965Z,1262.00
2023-04-30T03:50:22.987Z,1261.00
2023-04-30T03:51:23.028Z,1260.00
2023-04-30T03:52:23.060Z,1272.00
2023-04-30T03:53:23.074Z,1265.00
2023-04-30T03:54:23.104Z,1257.00
2023-04-30T03:55:23.151Z,1244.00
2023-04-30T03:56:23.283Z,1261.00
2023-04-30T03:57:23.281Z,1247.00
2023-04-30T03:58:23.323Z,1249.00
2023-04-30T03:59:23.399Z,1235.00
2023-04-30T04:00:23.459Z,1257.00
2023-04-30T04:01:23.559Z,1253.00
2023-04-30T04:02:23.641Z,1261.00
2023-04-30T04:03:23.567Z,1262.00
2023-04-30T04:04:23.696Z,1249.00
2023-04-30T04:05:23.619Z,1240.00
2023-04-30T04:06:23.749Z,1229.00
2023-04-30T04:07:23.669Z,1243.00
2023-04-30T04:08:23.699Z,1244.00
2023-04-30T04:09:23.739Z,1250.00
2023-04-30T04:10:23.785Z,1241.00
2023-04-30T04:11:23.804Z,1269.00
2023-04-30T04:12:23.819Z,1257.00
2023-04-30T04:13:23.920Z,1256.00
2023-04-30T04:14:23.932Z,1249.00
2023-04-30T04:15:23.986Z,1259.00
2023-04-30T04:16:24.117Z,1260.00
2023-04-30T04:17:24.122Z,1258.00
2023-04-30T04:18:24.136Z,1263.00
2023-04-30T04:19:24.138Z,1266.00
2023-04-30T04:20:24.224Z,1265.00
2023-04-30T04:21:24.193Z,1259.00
2023-04-30T04:22:24.216Z,1283.00
2023-04-30T04:23:24.249Z,1266.00
2023-04-30T04:24:24.285Z,1260.00
2023-04-30T04:25:24.308Z,1260.00
2023-04-30T04:26:24.337Z,1261.00
2023-04-30T04:27:24.359Z,1263.00
2023-04-30T04:28:24.396Z,1264.00
2023-04-30T04:29:24.508Z,1270.00
2023-04-30T04:30:24.462Z,1267.00
2023-04-30T04:31:24.515Z,1257.00
2023-04-30T04:32:24.533Z,1263.00
2023-04-30T04:33:24.567Z,1257.00
2023-04-30T04:34:24.562Z,1256.00
2023-04-30T04:35:24.578Z,1246.00
2023-04-30T04:36:24.611Z,1249.00
2023-04-30T04:37:24.645Z,1234.00
2023-04-30T04:38:24.669Z,1233.00
2023-04-30T04:39:24.707Z,1239.00
2023-04-30T04:40:24.721Z,1240.00
2023-04-30T04:41:24.759Z,1239.00
2023-04-30T04:42:24.790Z,1259.00
2023-04-30T04:43:24.818Z,1257.00
2023-04-30T04:44:24.860Z,1254.00
2023-04-30T04:45:24.881Z,1251.00
2023-04-30T04:46:24.944Z,1251.00
2023-04-30T04:47:24.957Z,1242.00
2023-04-30T04:48:24.944Z,1248.00
2023-04-30T04:49:24.974Z,1266.00
2023-04-30T04:50:25.006Z,1262.00
2023-04-30T04:51:25.059Z,1251.00
2023-04-30T04:52:25.110Z,1259.00
2023-04-30T04:53:25.167Z,1249.00
2023-04-30T04:54:25.211Z,1272.00
2023-04-30T04:55:25.257Z,1268.00
2023-04-30T04:56:25.327Z,1265.00
2023-04-30T04:57:25.349Z,1265.00
2023-04-30T04:58:25.400Z,1264.00
2023-04-30T04:59:25.406Z,1268.00
2023-04-30T05:00:25.433Z,1278.00
2023-04-30T05:01:25.640Z,1275.00
2023-04-30T05:02:25.563Z,1254.00
2023-04-30T05:03:25.548Z,1255.00
2023-04-30T05:04:25.474Z,1259.00
2023-04-30T05:05:25.488Z,1263.00
2023-04-30T05:06:25.520Z,1268.00
2023-04-30T05:07:25.517Z,1270.00
2023-04-30T05:08:25.505Z,1289.00
2023-04-30T05:09:25.499Z,1278.00
2023-04-30T05:10:25.521Z,1292.00
2023-04-30T05:11:25.536Z,1283.00
2023-04-30T05:12:25.508Z,1270.00
2023-04-30T05:13:25.511Z,1277.00
2023-04-30T05:14:25.542Z,1286.00
2023-04-30T05:15:25.525Z,1279.00
2023-04-30T05:16:25.629Z,1274.00
2023-04-30T05:17:25.547Z,1266.00
2023-04-30T05:18:25.518Z,1270.00
2023-04-30T05:19:25.514Z,1264.00
2023-04-30T05:20:25.541Z,1267.00
2023-04-30T05:21:25.520Z,1292.00
2023-04-30T05:22:25.520Z,1275.00
2023-04-30T05:23:25.503Z,1282.00
2023-04-30T05:24:25.526Z,1273.00
2023-04-30T05:25:25.564Z,1283.00
2023-04-30T05:26:25.611Z,1280.00
2023-04-30T05:27:25.629Z,1282.00
2023-04-30T05:28:25.648Z,1285.00
2023-04-30T05:29:25.694Z,1277.00
2023-04-30T05:30:25.723Z,1293.00
2023-04-30T05:31:25.781Z,1295.00
2023-04-30T05:32:25.791Z,1295.00
2023-04-30T05:33:25.736Z,1298.00
2023-04-30T05:34:25.748Z,1299.00
2023-04-30T05:35:25.750Z,1287.00
2023-04-30T05:36:25.729Z,1296.00
2023-04-30T05:37:25.725Z,1289.00
2023-04-30T05:38:25.737Z,1297.00
2023-04-30T05:39:25.721Z,1288.00
2023-04-30T05:40:25.731Z,1304.00
2023-04-30T05:41:25.720Z,1309.00
2023-04-30T05:42:25.732Z,1287.00
2023-04-30T05:43:25.726Z,1282.00
2023-04-30T05:44:25.744Z,1265.00
2023-04-30T05:45:25.769Z,1273.00
2023-04-30T05:46:25.853Z,1278.00
2023-04-30T05:47:25.749Z,1271.00
2023-04-30T05:48:25.751Z,1279.00
2023-04-30T05:49:25.758Z,1263.00
2023-04-30T05:50:25.759Z,1267.00
2023-04-30T05:51:25.783Z,1277.00
2023-04-30T05:52:25.788Z,1261.00
2023-04-30T05:53:25.783Z,1253.00
2023-04-30T05:54:25.778Z,1255.00
2023-04-30T05:55:25.834Z,1268.00
2023-04-30T05:56:25.787Z,1236.00
2023-04-30T05:57:25.805Z,1246.00
2023-04-30T05:58:25.811Z,1244.00
2023-04-30T05:59:25.849Z,1230.00
2023-04-30T06:00:25.876Z,1238.00
2023-04-30T06:01:25.890Z,1235.00
2023-04-30T06:02:26.091Z,1235.00
2023-04-30T06:03:25.962Z,1241.00
2023-04-30T06:04:26.016Z,1230.00
2023-04-30T06:05:26.012Z,1229.00
2023-04-30T06:06:26.072Z,1228.00
2023-04-30T06:07:26.068Z,1228.00
2023-04-30T06:08:26.098Z,1214.00
2023-04-30T06:09:26.101Z,1210.00
2023-04-30T06:10:26.162Z,1199.00
2023-04-30T06:11:26.150Z,1189.00
2023-04-30T06:12:26.188Z,1193.00
2023-04-30T06:13:26.217Z,1188.00
2023-04-30T06:14:26.229Z,1191.00
2023-04-30T06:15:26.258Z,1176.00
2023-04-30T06:16:26.348Z,1156.00
2023-04-30T06:17:26.335Z,1168.00
2023-04-30T06:18:26.336Z,1180.00
2023-04-30T06:19:26.361Z,1154.00
2023-04-30T06:20:26.379Z,1159.00
2023-04-30T06:21:26.407Z,1162.00
2023-04-30T06:22:26.429Z,1165.00
2023-04-30T06:23:26.420Z,1166.00
2023-04-30T06:24:26.418Z,1163.00
2023-04-30T06:25:26.420Z,1150.00
2023-04-30T06:26:26.420Z,1148.00
2023-04-30T06:27:26.422Z,1162.00
2023-04-30T06:28:26.429Z,1151.00
2023-04-30T06:29:26.426Z,1151.00
2023-04-30T06:30:26.422Z,1150.00
2023-04-30T06:31:26.465Z,1135.00
2023-04-30T06:32:26.429Z,1136.00
2023-04-30T06:33:26.414Z,1155.00
2023-04-30T06:34:26.414Z,1143.00
2023-04-30T06:35:26.434Z,1138.00
2023-04-30T06:36:26.428Z,1148.00
2023-04-30T06:37:26.451Z,1138.00
2023-04-30T06:38:26.454Z,1153.00
2023-04-30T06:39:26.457Z,1146.00
2023-04-30T06:40:26.477Z,1135.00
2023-04-30T06:41:26.473Z,1133.00
2023-04-30T06:42:26.466Z,1132.00
2023-04-30T06:43:26.462Z,1133.00
2023-04-30T06:44:26.464Z,1137.00
2023-04-30T06:45:26.477Z,1135.00
2023-04-30T06:46:26.508Z,1141.00
2023-04-30T06:47:26.561Z,1139.00
2023-04-30T06:48:26.502Z,1141.00
2023-04-30T06:49:26.508Z,1126.00
2023-04-30T06:50:26.598Z,1125.00
2023-04-30T06:51:26.542Z,1123.00
2023-04-30T06:52:26.592Z,1116.00
2023-04-30T06:53:26.656Z,1108.00
2023-04-30T06:54:26.708Z,1114.00
2023-04-30T06:55:26.719Z,1115.00
2023-04-30T06:56:26.631Z,1103.00
2023-04-30T06:57:26.681Z,1105.00
2023-04-30T06:58:26.696Z,1101.00
2023-04-30T06:59:26.744Z,1078.00
2023-04-30T07:00:26.724Z,1080.00
2023-04-30T07:01:26.789Z,1066.00
2023-04-30T07:02:26.862Z,1062.00
2023-04-30T07:03:26.961Z,1067.00
2023-04-30T07:04:26.877Z,1060.00
2023-04-30T07:05:26.938Z,1066.00
2023-04-30T07:06:27.051Z,1050.00
2023-04-30T07:07:27.026Z,1045.00
2023-04-30T07:08:27.041Z,1045.00
2023-04-30T07:09:27.074Z,1034.00
2023-04-30T07:10:27.088Z,1035.00
2023-04-30T07:11:27.097Z,1029.00
2023-04-30T07:12:27.141Z,1023.00
2023-04-30T07:13:27.125Z,1020.00
2023-04-30T07:14:27.098Z,1016.00
2023-04-30T07:15:27.115Z,1009.00
2023-04-30T07:16:27.180Z,1002.00
2023-04-30T07:17:27.694Z,1008.00
2023-04-30T07:18:27.113Z,1005.00
2023-04-30T07:19:27.086Z,997.00
2023-04-30T07:20:27.098Z,986.00
2023-04-30T07:21:27.095Z,993.00
2023-04-30T07:22:27.093Z,1002.00
2023-04-30T07:23:28.437Z,980.00
2023-04-30T07:24:27.080Z,986.00
2023-04-30T07:25:27.081Z,990.00
2023-04-30T07:26:27.085Z,983.00
2023-04-30T07:27:27.070Z,985.00
2023-04-30T07:28:27.077Z,980.00
2023-04-30T07:29:27.068Z,975.00
2023-04-30T07:30:27.088Z,982.00
2023-04-30T07:31:27.110Z,987.00
2023-04-30T07:32:27.087Z,973.00
2023-04-30T07:33:27.073Z,967.00
2023-04-30T07:34:27.072Z,967.00
2023-04-30T07:35:27.079Z,969.00
2023-04-30T07:36:27.090Z,967.00
2023-04-30T07:37:27.075Z,962.00
2023-04-30T07:38:27.067Z,961.00
2023-04-30T07:39:27.067Z,945.00
2023-04-30T07:40:35.871Z,940.00
2023-04-30T07:41:28.065Z,941.00
2023-04-30T07:42:27.072Z,942.00
2023-04-30T07:43:27.081Z,948.00
2023-04-30T07:44:27.068Z,932.00
2023-04-30T07:45:27.067Z,932.00
2023-04-30T07:46:27.092Z,917.00
2023-04-30T07:47:27.097Z,916.00
2023-04-30T07:48:27.074Z,922.00
2023-04-30T07:49:27.078Z,922.00
2023-04-30T07:50:27.043Z,931.00
2023-04-30T07:51:27.043Z,936.00
2023-04-30T07:52:27.042Z,927.00
2023-04-30T07:53:27.042Z,919.00
2023-04-30T07:54:27.057Z,910.00
2023-04-30T07:55:27.046Z,893.00
2023-04-30T07:56:27.032Z,906.00
2023-04-30T07:57:27.041Z,884.00
2023-04-30T07:58:27.025Z,895.00
2023-04-30T07:59:27.001Z,901.00
2023-04-30T08:00:27.004Z,899.00
2023-04-30T08:01:27.000Z,893.00
2023-04-30T08:02:27.053Z,886.00
2023-04-30T08:03:27.144Z,899.00
2023-04-30T08:04:27.073Z,905.00
2023-04-30T08:05:27.059Z,881.00
2023-04-30T08:06:27.113Z,882.00
2023-04-30T08:07:27.061Z,884.00
2023-04-30T08:08:27.033Z,884.00
2023-04-30T08:09:27.033Z,868.00
2023-04-30T08:10:27.020Z,862.00
2023-04-30T08:11:27.026Z,872.00
2023-04-30T08:12:27.022Z,871.00
2023-04-30T08:13:27.090Z,850.00
2023-04-30T08:14:26.991Z,850.00
2023-04-30T08:15:28.203Z,838.00
2023-04-30T08:16:27.006Z,850.00
2023-04-30T08:17:27.007Z,856.00
2023-04-30T08:18:26.986Z,844.00
2023-04-30T08:19:26.952Z,853.00
2023-04-30T08:20:26.935Z,814.00
2023-04-30T08:21:26.925Z,823.00
2023-04-30T08:22:26.923Z,828.00
2023-04-30T08:23:26.920Z,831.00
2023-04-30T08:24:26.923Z,830.00
2023-04-30T08:25:26.902Z,830.00
2023-04-30T08:26:26.898Z,831.00
2023-04-30T08:27:26.885Z,825.00
2023-04-30T08:28:26.861Z,830.00
2023-04-30T08:29:26.863Z,829.00
2023-04-30T08:30:26.845Z,827.00
2023-04-30T08:31:26.906Z,820.00
2023-04-30T08:32:26.916Z,825.00
2023-04-30T08:33:26.838Z,800.00
2023-04-30T08:34:26.819Z,813.00
2023-04-30T08:35:26.834Z,822.00
2023-04-30T08:36:26.802Z,805.00
2023-04-30T08:37:26.807Z,788.00
2023-04-30T08:38:28.275Z,782.00
2023-04-30T08:39:26.792Z,791.00
2023-04-30T08:40:43.453Z,783.00
2023-04-30T08:41:27.775Z,784.00
2023-04-30T08:42:26.774Z,782.00
2023-04-30T08:43:26.778Z,771.00
2023-04-30T08:44:26.746Z,745.00
2023-04-30T08:45:26.775Z,775.00
2023-04-30T08:46:26.793Z,768.00
2023-04-30T08:47:26.765Z,763.00
2023-04-30T08:48:26.722Z,781.00
2023-04-30T08:49:26.720Z,768.00
2023-04-30T08:50:26.705Z,763.00
2023-04-30T08:51:26.705Z,737.00
2023-04-30T08:52:26.702Z,745.00
2023-04-30T08:53:26.700Z,771.00
2023-04-30T08:54:26.681Z,760.00
2023-04-30T08:55:26.666Z,769.00
2023-04-30T08:56:26.663Z,764.00
2023-04-30T08:57:26.697Z,764.00
2023-04-30T08:58:26.671Z,749.00
2023-04-30T08:59:26.648Z,750.00
2023-04-30T09:00:26.635Z,754.00
2023-04-30T09:01:26.663Z,763.00
2023-04-30T09:02:26.704Z,772.00
2023-04-30T09:03:26.705Z,756.00
2023-04-30T09:04:26.621Z,763.00
2023-04-30T09:05:26.663Z,750.00
2023-04-30T09:06:26.704Z,757.00
2023-04-30T09:07:26.619Z,760.00
2023-04-30T09:08:26.590Z,769.00
2023-04-30T09:09:26.732Z,767.00
2023-04-30T09:10:26.576Z,755.00
2023-04-30T09:11:26.565Z,767.00
2023-04-30T09:12:26.566Z,771.00
2023-04-30T09:13:26.603Z,761.00
2023-04-30T09:14:26.539Z,755.00
2023-04-30T09:15:26.535Z,762.00
2023-04-30T09:16:26.796Z,791.00
2023-04-30T09:17:26.513Z,755.00
2023-04-30T09:18:26.490Z,755.00
2023-04-30T09:19:26.490Z,760.00
2023-04-30T09:20:26.493Z,740.00
2023-04-30T09:21:26.480Z,746.00
2023-04-30T09:22:26.491Z,747.00
2023-04-30T09:23:26.503Z,748.00
2023-04-30T09:24:26.505Z,743.00
2023-04-30T09:25:26.485Z,749.00
2023-04-30T09:26:26.475Z,748.00
2023-04-30T09:27:26.489Z,743.00
2023-04-30T09:28:26.504Z,762.00
2023-04-30T09:29:26.485Z,756.00
2023-04-30T09:30:26.476Z,747.00
2023-04-30T09:31:26.521Z,770.00
2023-04-30T09:32:26.510Z,767.00
2023-04-30T09:33:26.460Z,743.00
2023-04-30T09:34:26.486Z,739.00
2023-04-30T09:35:26.519Z,736.00
2023-04-30T09:36:26.526Z,722.00
2023-04-30T09:37:26.532Z,734.00
2023-04-30T09:38:26.526Z,707.00
2023-04-30T09:39:26.522Z,728.00
2023-04-30T09:40:26.545Z,727.00
2023-04-30T09:41:26.776Z,713.00
2023-04-30T09:42:26.546Z,732.00
2023-04-30T09:43:26.571Z,702.00
2023-04-30T09:44:26.568Z,695.00
2023-04-30T09:45:26.583Z,713.00
2023-04-30T09:46:26.650Z,684.00
2023-04-30T09:47:26.632Z,682.00
2023-04-30T09:48:26.670Z,678.00
2023-04-30T09:49:26.726Z,668.00
2023-04-30T09:50:26.654Z,682.00
2023-04-30T09:51:26.659Z,666.00
2023-04-30T09:52:26.648Z,661.00
2023-04-30T09:53:26.678Z,656.00
2023-04-30T09:54:26.665Z,661.00
2023-04-30T09:55:26.657Z,663.00
2023-04-30T09:56:26.681Z,654.00
2023-04-30T09:57:26.714Z,658.00
2023-04-30T09:58:26.734Z,659.00
2023-04-30T09:59:26.782Z,653.00
2023-04-30T10:00:26.850Z,640.00
2023-04-30T10:01:26.961Z,636.00
2023-04-30T10:02:26.959Z,631.00
2023-04-30T10:03:26.982Z,645.00
2023-04-30T10:04:27.172Z,640.00
2023-04-30T10:05:27.038Z,646.00
2023-04-30T10:06:27.204Z,641.00
2023-04-30T10:07:27.119Z,641.00
2023-04-30T10:08:27.178Z,642.00
2023-04-30T10:09:27.219Z,647.00
2023-04-30T10:10:27.281Z,642.00
2023-04-30T10:11:27.342Z,650.00
2023-04-30T10:12:27.361Z,643.00
2023-04-30T10:13:27.370Z,638.00
2023-04-30T10:14:27.355Z,639.00
2023-04-30T10:15:27.364Z,636.00
2023-04-30T10:16:27.423Z,630.00
2023-04-30T10:17:27.490Z,624.00
2023-04-30T10:18:27.429Z,624.00
2023-04-30T10:19:27.441Z,622.00
2023-04-30T10:20:27.416Z,617.00
2023-04-30T10:21:27.408Z,616.00
2023-04-30T10:22:27.412Z,617.00
2023-04-30T10:23:27.397Z,618.00
2023-04-30T10:24:27.371Z,612.00
2023-04-30T10:25:27.413Z,612.00
2023-04-30T10:26:27.387Z,611.00
2023-04-30T10:27:27.432Z,603.00
2023-04-30T10:28:27.483Z,594.00
2023-04-30T10:29:27.514Z,594.00
2023-04-30T10:30:27.574Z,594.00
2023-04-30T10:31:27.647Z,579.00
2023-04-30T10:32:27.790Z,568.00
2023-04-30T10:33:27.767Z,556.00
2023-04-30T10:34:27.797Z,552.00
2023-04-30T10:35:27.830Z,551.00
2023-04-30T10:36:27.828Z,546.00
2023-04-30T10:37:27.813Z,542.00
2023-04-30T10:38:27.811Z,549.00
2023-04-30T10:39:27.778Z,550.00
2023-04-30T10:40:27.794Z,551.00
2023-04-30T10:41:27.793Z,552.00
2023-04-30T10:42:27.754Z,542.00
2023-04-30T10:43:27.745Z,536.00
2023-04-30T10:44:27.744Z,537.00
2023-04-30T10:45:27.727Z,533.00
2023-04-30T10:46:27.793Z,529.00
2023-04-30T10:47:27.825Z,530.00
2023-04-30T10:48:27.770Z,521.00
2023-04-30T10:49:27.804Z,521.00
2023-04-30T10:50:27.811Z,516.00
2023-04-30T10:51:27.839Z,517.00
2023-04-30T10:52:27.893Z,506.00
2023-04-30T10:53:27.854Z,510.00
2023-04-30T10:54:27.850Z,506.00
2023-04-30T10:55:27.907Z,500.00
2023-04-30T10:56:27.871Z,502.00
2023-04-30T10:57:27.879Z,507.00
2023-04-30T10:58:27.905Z,502.00
2023-04-30T10:59:27.915Z,509.00
2023-04-30T11:00:27.921Z,512.00
2023-04-30T11:01:27.980Z,516.00
2023-04-30T11:02:27.984Z,512.00
2023-04-30T11:03:27.993Z,525.00
2023-04-30T11:04:28.053Z,532.00
2023-04-30T11:05:28.053Z,533.00
2023-04-30T11:06:28.149Z,527.00
2023-04-30T11:07:28.067Z,529.00
2023-04-30T11:08:28.054Z,529.00
2023-04-30T11:09:28.048Z,529.00
2023-04-30T11:10:28.036Z,516.00
2023-04-30T11:11:28.024Z,510.00
2023-04-30T11:12:28.017Z,519.00
2023-04-30T11:13:28.000Z,523.00
2023-04-30T11:14:27.993Z,515.00
2023-04-30T11:15:27.979Z,515.00
2023-04-30T11:16:28.006Z,516.00
2023-04-30T11:17:27.965Z,518.00
2023-04-30T11:18:27.941Z,519.00
2023-04-30T11:19:27.954Z,524.00
2023-04-30T11:20:27.936Z,533.00
2023-04-30T11:21:27.888Z,542.00
2023-04-30T11:22:27.874Z,539.00
2023-04-30T11:23:38.360Z,548.00
2023-04-30T11:24:28.612Z,548.00
2023-04-30T11:25:27.834Z,551.00
2023-04-30T11:26:27.810Z,553.00
2023-04-30T11:27:27.794Z,550.00
2023-04-30T11:28:27.803Z,542.00
2023-04-30T11:29:27.787Z,541.00
2023-04-30T11:30:27.747Z,542.00
2023-04-30T11:31:27.745Z,537.00
2023-04-30T11:32:27.766Z,536.00
2023-04-30T11:33:27.795Z,539.00
2023-04-30T11:34:27.810Z,539.00
2023-04-30T11:35:27.882Z,533.00
2023-04-30T11:36:27.878Z,532.00
2023-04-30T11:37:27.915Z,520.00
2023-04-30T11:38:27.960Z,514.00
2023-04-30T11:39:28.016Z,511.00
2023-04-30T11:40:28.161Z,518.00
2023-04-30T11:41:28.117Z,515.00
2023-04-30T11:42:28.104Z,503.00
2023-04-30T11:43:28.167Z,514.00
2023-04-30T11:44:28.206Z,514.00
2023-04-30T11:45:28.237Z,525.00
2023-04-30T11:46:28.284Z,523.00
2023-04-30T11:47:28.344Z,519.00
2023-04-30T11:48:28.381Z,526.00
2023-04-30T11:49:28.420Z,535.00
2023-04-30T11:50:28.477Z,521.00
2023-04-30T11:51:28.507Z,509.00
2023-04-30T11:52:28.572Z,514.00
2023-04-30T11:53:28.585Z,522.00
2023-04-30T11:54:28.650Z,512.00
2023-04-30T11:55:28.703Z,517.00
2023-04-30T11:56:28.760Z,516.00
2023-04-30T11:57:28.917Z,529.00
2023-04-30T11:58:28.871Z,529.00
2023-04-30T11:59:28.915Z,524.00
2023-04-30T12:00:28.980Z,525.00
2023-04-30T12:01:29.018Z,538.00
2023-04-30T12:02:29.137Z,527.00
2023-04-30T12:03:29.205Z,537.00
2023-04-30T12:04:29.275Z,557.00
2023-04-30T12:05:29.220Z,567.00
2023-04-30T12:06:29.397Z,575.00
2023-04-30T12:07:29.358Z,579.00
2023-04-30T12:08:29.378Z,578.00
2023-04-30T12:09:29.427Z,586.00
2023-04-30T12:10:29.512Z,585.00
2023-04-30T12:11:29.542Z,584.00
2023-04-30T12:12:29.592Z,574.00
2023-04-30T12:13:29.638Z,574.00
2023-04-30T12:14:29.681Z,576.00